sensor_id;sensor_type;location;lat;lon;timestamp;pressure;altitude;pressure_sealevel;temperature;humidity
56402;BME280;42299;35.160;26.100;2022-07-22T00:01:13;100645.31;;;24.00;49.57
56402;BME280;42299;35.160;26.100;2022-07-22T00:02:34;100647.25;;;23.97;49.84
56402;BME280;42299;35.160;26.100;2022-07-22T00:03:57;100640.97;;;23.96;49.70
56402;BME280;42299;35.160;26.100;2022-07-22T00:05:20;100645.25;;;24.02;49.37
56402;BME280;42299;35.160;26.100;2022-07-22T00:06:42;100643.34;;;24.04;49.43
56402;BME280;42299;35.160;26.100;2022-07-22T00:08:04;100643.44;;;24.02;49.47
56402;BME280;42299;35.160;26.100;2022-07-22T00:09:27;100642.56;;;24.02;49.50
56402;BME280;42299;35.160;26.100;2022-07-22T00:10:48;100641.75;;;24.00;49.64
56402;BME280;42299;35.160;26.100;2022-07-22T00:12:11;100642.69;;;23.99;49.58
56402;BME280;42299;35.160;26.100;2022-07-22T00:13:32;100639.25;;;23.95;49.65
56402;BME280;42299;35.160;26.100;2022-07-22T00:14:55;100637.53;;;23.93;49.70
56402;BME280;42299;35.160;26.100;2022-07-22T00:16:18;100642.13;;;23.91;49.83
56402;BME280;42299;35.160;26.100;2022-07-22T00:17:40;100634.09;;;23.89;49.79
56402;BME280;42299;35.160;26.100;2022-07-22T00:19:03;100635.97;;;23.87;50.01
56402;BME280;42299;35.160;26.100;2022-07-22T00:20:24;100646.00;;;23.83;49.88
56402;BME280;42299;35.160;26.100;2022-07-22T00:21:46;100637.22;;;23.78;50.09
56402;BME280;42299;35.160;26.100;2022-07-22T00:23:09;100634.69;;;23.75;50.05
56402;BME280;42299;35.160;26.100;2022-07-22T00:24:31;100630.22;;;23.74;50.02
56402;BME280;42299;35.160;26.100;2022-07-22T00:25:53;100633.78;;;23.75;49.93
56402;BME280;42299;35.160;26.100;2022-07-22T00:27:15;100631.00;;;23.76;49.96
56402;BME280;42299;35.160;26.100;2022-07-22T00:28:37;100648.16;;;23.75;49.98
56402;BME280;42299;35.160;26.100;2022-07-22T00:29:59;100651.94;;;23.70;50.07
56402;BME280;42299;35.160;26.100;2022-07-22T00:31:23;100642.25;;;23.66;50.25
56402;BME280;42299;35.160;26.100;2022-07-22T00:32:46;100640.53;;;23.63;50.46
56402;BME280;42299;35.160;26.100;2022-07-22T00:34:08;100634.16;;;23.66;50.29
56402;BME280;42299;35.160;26.100;2022-07-22T00:35:30;100633.16;;;23.68;50.32
56402;BME280;42299;35.160;26.100;2022-07-22T00:36:52;100644.75;;;23.70;50.30
56402;BME280;42299;35.160;26.100;2022-07-22T00:38:14;100646.50;;;23.71;50.21
56402;BME280;42299;35.160;26.100;2022-07-22T00:39:37;100639.34;;;23.70;50.25
56402;BME280;42299;35.160;26.100;2022-07-22T00:40:59;100646.19;;;23.79;49.78
56402;BME280;42299;35.160;26.100;2022-07-22T00:42:21;100644.00;;;23.89;49.69
56402;BME280;42299;35.160;26.100;2022-07-22T00:43:51;100653.66;;;23.94;49.28
56402;BME280;42299;35.160;26.100;2022-07-22T00:45:13;100645.63;;;23.93;49.61
56402;BME280;42299;35.160;26.100;2022-07-22T00:46:37;100649.16;;;23.95;49.50
56402;BME280;42299;35.160;26.100;2022-07-22T00:47:59;100644.44;;;24.00;49.37
56402;BME280;42299;35.160;26.100;2022-07-22T00:49:21;100649.84;;;24.00;49.28
56402;BME280;42299;35.160;26.100;2022-07-22T00:50:44;100645.53;;;23.96;49.51
56402;BME280;42299;35.160;26.100;2022-07-22T00:52:06;100645.63;;;23.93;49.57
56402;BME280;42299;35.160;26.100;2022-07-22T00:53:28;100646.56;;;23.92;49.52
56402;BME280;42299;35.160;26.100;2022-07-22T00:54:51;100652.09;;;23.89;49.74
56402;BME280;42299;35.160;26.100;2022-07-22T00:56:14;100643.13;;;23.88;49.80
56402;BME280;42299;35.160;26.100;2022-07-22T00:57:35;100647.50;;;23.91;49.58
56402;BME280;42299;35.160;26.100;2022-07-22T00:59:00;100651.84;;;23.95;49.51
56402;BME280;42299;35.160;26.100;2022-07-22T01:00:23;100645.53;;;23.96;49.37
56402;BME280;42299;35.160;26.100;2022-07-22T01:01:47;100658.91;;;23.97;49.26
56402;BME280;42299;35.160;26.100;2022-07-22T01:03:09;100648.22;;;23.96;49.28
56402;BME280;42299;35.160;26.100;2022-07-22T01:04:31;100654.56;;;23.95;49.39
56402;BME280;42299;35.160;26.100;2022-07-22T01:05:53;100649.06;;;23.96;49.18
56402;BME280;42299;35.160;26.100;2022-07-22T01:07:15;100648.06;;;23.99;49.25
56402;BME280;42299;35.160;26.100;2022-07-22T01:08:37;100644.38;;;24.01;48.98
56402;BME280;42299;35.160;26.100;2022-07-22T01:10:00;100647.97;;;24.02;48.90
56402;BME280;42299;35.160;26.100;2022-07-22T01:11:21;100645.19;;;24.03;48.75
56402;BME280;42299;35.160;26.100;2022-07-22T01:12:44;100646.06;;;24.04;49.06
56402;BME280;42299;35.160;26.100;2022-07-22T01:14:07;100645.25;;;24.02;49.10
56402;BME280;42299;35.160;26.100;2022-07-22T01:15:28;100648.91;;;24.01;48.90
56402;BME280;42299;35.160;26.100;2022-07-22T01:16:52;100640.81;;;24.01;48.97
56402;BME280;42299;35.160;26.100;2022-07-22T01:18:15;100648.94;;;23.99;49.02
56402;BME280;42299;35.160;26.100;2022-07-22T01:19:37;100649.00;;;23.98;49.30
56402;BME280;42299;35.160;26.100;2022-07-22T01:21:01;100646.31;;;23.98;49.13
56402;BME280;42299;35.160;26.100;2022-07-22T01:22:23;100648.28;;;23.94;49.21
56402;BME280;42299;35.160;26.100;2022-07-22T01:23:45;100643.03;;;23.90;49.40
56402;BME280;42299;35.160;26.100;2022-07-22T01:25:08;100640.50;;;23.87;49.48
56402;BME280;42299;35.160;26.100;2022-07-22T01:26:31;100645.94;;;23.85;49.54
56402;BME280;42299;35.160;26.100;2022-07-22T01:27:55;100645.06;;;23.84;49.63
56402;BME280;42299;35.160;26.100;2022-07-22T01:29:18;100642.38;;;23.84;49.69
56402;BME280;42299;35.160;26.100;2022-07-22T01:30:40;100652.28;;;23.84;49.56
56402;BME280;42299;35.160;26.100;2022-07-22T01:32:02;100654.09;;;23.83;49.78
56402;BME280;42299;35.160;26.100;2022-07-22T01:33:25;100643.75;;;23.73;49.84
56402;BME280;42299;35.160;26.100;2022-07-22T01:34:47;100646.75;;;23.65;50.06
56402;BME280;42299;35.160;26.100;2022-07-22T01:36:12;100646.88;;;23.62;50.12
56402;BME280;42299;35.160;26.100;2022-07-22T01:37:34;100654.09;;;23.62;50.15
56402;BME280;42299;35.160;26.100;2022-07-22T01:38:57;100650.53;;;23.61;50.22
56402;BME280;42299;35.160;26.100;2022-07-22T01:40:20;100650.53;;;23.61;50.22
56402;BME280;42299;35.160;26.100;2022-07-22T01:41:41;100654.00;;;23.63;50.25
56402;BME280;42299;35.160;26.100;2022-07-22T01:43:06;100648.63;;;23.63;50.13
56402;BME280;42299;35.160;26.100;2022-07-22T01:44:30;100646.75;;;23.65;50.30
56402;BME280;42299;35.160;26.100;2022-07-22T01:45:53;100652.97;;;23.67;50.08
56402;BME280;42299;35.160;26.100;2022-07-22T01:47:16;100655.66;;;23.67;50.16
56402;BME280;42299;35.160;26.100;2022-07-22T01:48:39;100651.16;;;23.68;50.17
56402;BME280;42299;35.160;26.100;2022-07-22T01:50:02;100651.22;;;23.66;50.21
56402;BME280;42299;35.160;26.100;2022-07-22T01:51:26;100649.44;;;23.65;50.48
56402;BME280;42299;35.160;26.100;2022-07-22T01:52:48;100656.66;;;23.65;50.47
56402;BME280;42299;35.160;26.100;2022-07-22T01:54:11;100653.91;;;23.66;50.38
56402;BME280;42299;35.160;26.100;2022-07-22T01:55:34;100652.91;;;23.69;50.33
56402;BME280;42299;35.160;26.100;2022-07-22T01:56:55;100651.94;;;23.70;50.46
56402;BME280;42299;35.160;26.100;2022-07-22T01:58:19;100642.13;;;23.69;50.47
56402;BME280;42299;35.160;26.100;2022-07-22T01:59:41;100653.78;;;23.69;50.49
56402;BME280;42299;35.160;26.100;2022-07-22T02:01:04;100643.84;;;23.70;50.52
56402;BME280;42299;35.160;26.100;2022-07-22T02:02:27;100642.88;;;23.72;50.36
56402;BME280;42299;35.160;26.100;2022-07-22T02:03:49;100644.75;;;23.70;50.40
56402;BME280;42299;35.160;26.100;2022-07-22T02:05:12;100647.44;;;23.70;50.56
56402;BME280;42299;35.160;26.100;2022-07-22T02:06:36;100649.34;;;23.68;50.57
56402;BME280;42299;35.160;26.100;2022-07-22T02:08:00;100639.53;;;23.66;50.58
56402;BME280;42299;35.160;26.100;2022-07-22T02:09:25;100643.72;;;23.51;50.86
56402;BME280;42299;35.160;26.100;2022-07-22T02:10:49;100650.44;;;23.39;51.27
56402;BME280;42299;35.160;26.100;2022-07-22T02:12:11;100655.88;;;23.38;51.32
56402;BME280;42299;35.160;26.100;2022-07-22T02:13:38;100654.22;;;23.35;51.30
56402;BME280;42299;35.160;26.100;2022-07-22T02:15:01;100649.84;;;23.31;51.56
56402;BME280;42299;35.160;26.100;2022-07-22T02:16:22;100656.19;;;23.30;51.65
56402;BME280;42299;35.160;26.100;2022-07-22T02:17:46;100649.06;;;23.29;51.71
56402;BME280;42299;35.160;26.100;2022-07-22T02:19:07;100653.47;;;23.30;51.59
56402;BME280;42299;35.160;26.100;2022-07-22T02:20:30;100654.38;;;23.31;51.52
56402;BME280;42299;35.160;26.100;2022-07-22T02:21:55;100648.91;;;23.32;51.47
56402;BME280;42299;35.160;26.100;2022-07-22T02:23:18;100650.78;;;23.30;51.62
56402;BME280;42299;35.160;26.100;2022-07-22T02:24:40;100649.13;;;23.28;51.74
56402;BME280;42299;35.160;26.100;2022-07-22T02:26:02;100654.56;;;23.26;51.61
56402;BME280;42299;35.160;26.100;2022-07-22T02:27:25;100649.28;;;23.23;51.84
56402;BME280;42299;35.160;26.100;2022-07-22T02:28:46;100651.22;;;23.20;52.01
56402;BME280;42299;35.160;26.100;2022-07-22T02:30:10;100652.44;;;23.11;52.18
56402;BME280;42299;35.160;26.100;2022-07-22T02:31:32;100654.59;;;23.01;52.46
56402;BME280;42299;35.160;26.100;2022-07-22T02:32:54;100651.03;;;23.01;52.54
56402;BME280;42299;35.160;26.100;2022-07-22T02:34:17;100652.75;;;23.03;52.47
56402;BME280;42299;35.160;26.100;2022-07-22T02:35:39;100646.25;;;23.09;52.40
56402;BME280;42299;35.160;26.100;2022-07-22T02:37:02;100648.81;;;23.12;52.33
56402;BME280;42299;35.160;26.100;2022-07-22T02:38:25;100656.84;;;23.14;52.35
56402;BME280;42299;35.160;26.100;2022-07-22T02:39:47;100655.03;;;23.14;52.32
56402;BME280;42299;35.160;26.100;2022-07-22T02:41:10;100653.22;;;23.15;52.35
56402;BME280;42299;35.160;26.100;2022-07-22T02:42:38;100649.81;;;23.10;52.45
56402;BME280;42299;35.160;26.100;2022-07-22T02:43:59;100650.81;;;23.07;52.60
56402;BME280;42299;35.160;26.100;2022-07-22T02:45:22;100643.66;;;23.06;52.74
56402;BME280;42299;35.160;26.100;2022-07-22T02:46:45;100650.84;;;23.05;52.87
56402;BME280;42299;35.160;26.100;2022-07-22T02:48:11;100650.75;;;23.09;52.72
56402;BME280;42299;35.160;26.100;2022-07-22T02:49:33;100649.81;;;23.10;52.76
56402;BME280;42299;35.160;26.100;2022-07-22T02:50:56;100653.44;;;23.09;52.82
56402;BME280;42299;35.160;26.100;2022-07-22T02:52:23;100652.50;;;23.10;53.01
56402;BME280;42299;35.160;26.100;2022-07-22T02:53:45;100652.50;;;23.10;52.99
56402;BME280;42299;35.160;26.100;2022-07-22T02:55:08;100654.25;;;23.11;53.18
56402;BME280;42299;35.160;26.100;2022-07-22T02:56:30;100653.50;;;23.07;53.22
56402;BME280;42299;35.160;26.100;2022-07-22T02:57:53;100654.59;;;23.01;53.26
56402;BME280;42299;35.160;26.100;2022-07-22T02:59:15;100660.28;;;22.94;53.49
56402;BME280;42299;35.160;26.100;2022-07-22T03:00:38;100659.34;;;22.95;53.71
56402;BME280;42299;35.160;26.100;2022-07-22T03:02:00;100654.06;;;22.92;53.77
56402;BME280;42299;35.160;26.100;2022-07-22T03:03:23;100653.63;;;22.79;53.87
56402;BME280;42299;35.160;26.100;2022-07-22T03:04:47;100657.63;;;22.67;54.14
56402;BME280;42299;35.160;26.100;2022-07-22T03:06:09;100657.78;;;22.63;54.41
56402;BME280;42299;35.160;26.100;2022-07-22T03:07:37;100666.66;;;22.65;54.35
56402;BME280;42299;35.160;26.100;2022-07-22T03:09:02;100659.59;;;22.62;54.45
56402;BME280;42299;35.160;26.100;2022-07-22T03:10:26;100669.69;;;22.56;54.52
56402;BME280;42299;35.160;26.100;2022-07-22T03:11:48;100668.81;;;22.55;54.60
56402;BME280;42299;35.160;26.100;2022-07-22T03:13:11;100659.75;;;22.58;54.76
56402;BME280;42299;35.160;26.100;2022-07-22T03:14:33;100669.44;;;22.63;54.90
56402;BME280;42299;35.160;26.100;2022-07-22T03:15:55;100668.44;;;22.66;55.00
56402;BME280;42299;35.160;26.100;2022-07-22T03:17:17;100672.88;;;22.67;54.97
56402;BME280;42299;35.160;26.100;2022-07-22T03:18:40;100670.19;;;22.67;55.00
56402;BME280;42299;35.160;26.100;2022-07-22T03:20:03;100666.44;;;22.71;55.04
56402;BME280;42299;35.160;26.100;2022-07-22T03:21:26;100671.75;;;22.74;55.25
56402;BME280;42299;35.160;26.100;2022-07-22T03:22:50;100671.66;;;22.77;55.13
56402;BME280;42299;35.160;26.100;2022-07-22T03:24:11;100668.00;;;22.78;55.14
56402;BME280;42299;35.160;26.100;2022-07-22T03:25:35;100674.22;;;22.80;55.10
56402;BME280;42299;35.160;26.100;2022-07-22T03:26:59;100669.69;;;22.82;55.17
56402;BME280;42299;35.160;26.100;2022-07-22T03:28:24;100668.00;;;22.78;55.13
56402;BME280;42299;35.160;26.100;2022-07-22T03:29:47;100669.91;;;22.76;55.12
56402;BME280;42299;35.160;26.100;2022-07-22T03:31:09;100670.78;;;22.77;55.19
56402;BME280;42299;35.160;26.100;2022-07-22T03:32:32;100666.28;;;22.77;55.30
56402;BME280;42299;35.160;26.100;2022-07-22T03:33:54;100675.16;;;22.79;55.43
56402;BME280;42299;35.160;26.100;2022-07-22T03:35:16;100676.00;;;22.81;55.36
56402;BME280;42299;35.160;26.100;2022-07-22T03:36:40;100675.06;;;22.82;55.52
56402;BME280;42299;35.160;26.100;2022-07-22T03:38:05;100674.84;;;22.88;55.39
56402;BME280;42299;35.160;26.100;2022-07-22T03:39:28;100671.09;;;22.92;55.42
56402;BME280;42299;35.160;26.100;2022-07-22T03:40:50;100676.25;;;22.98;55.44
56402;BME280;42299;35.160;26.100;2022-07-22T03:42:13;100668.81;;;23.05;55.33
56402;BME280;42299;35.160;26.100;2022-07-22T03:43:40;100673.03;;;23.12;55.24
56402;BME280;42299;35.160;26.100;2022-07-22T03:45:03;100677.25;;;23.19;55.17
56402;BME280;42299;35.160;26.100;2022-07-22T03:46:30;100670.66;;;23.28;54.96
56402;BME280;42299;35.160;26.100;2022-07-22T03:47:52;100682.91;;;23.36;54.71
56402;BME280;42299;35.160;26.100;2022-07-22T03:49:19;100680.88;;;23.43;54.65
56402;BME280;42299;35.160;26.100;2022-07-22T03:50:40;100680.53;;;23.52;54.52
56402;BME280;42299;35.160;26.100;2022-07-22T03:52:03;100682.88;;;23.61;54.43
56402;BME280;42299;35.160;26.100;2022-07-22T03:53:27;100685.13;;;23.72;54.23
56402;BME280;42299;35.160;26.100;2022-07-22T03:54:51;100683.75;;;23.83;54.36
56402;BME280;42299;35.160;26.100;2022-07-22T03:56:12;100686.81;;;23.96;54.05
56402;BME280;42299;35.160;26.100;2022-07-22T03:57:35;100690.78;;;24.09;53.92
56402;BME280;42299;35.160;26.100;2022-07-22T03:59:02;100692.94;;;24.23;53.88
56402;BME280;42299;35.160;26.100;2022-07-22T04:00:25;100684.31;;;24.35;53.68
56402;BME280;42299;35.160;26.100;2022-07-22T04:01:47;100677.56;;;24.47;53.38
56402;BME280;42299;35.160;26.100;2022-07-22T04:03:09;100687.88;;;24.57;53.16
56402;BME280;42299;35.160;26.100;2022-07-22T04:04:45;100683.84;;;24.68;53.07
56402;BME280;42299;35.160;26.100;2022-07-22T04:06:08;100691.41;;;24.80;52.76
56402;BME280;42299;35.160;26.100;2022-07-22T04:07:39;100697.16;;;24.92;52.75
56402;BME280;42299;35.160;26.100;2022-07-22T04:09:03;100683.16;;;25.03;52.48
56402;BME280;42299;35.160;26.100;2022-07-22T04:10:27;100690.88;;;25.12;52.31
56402;BME280;42299;35.160;26.100;2022-07-22T04:11:50;100691.19;;;25.25;52.14
56402;BME280;42299;35.160;26.100;2022-07-22T04:13:14;100688.72;;;25.39;52.06
56402;BME280;42299;35.160;26.100;2022-07-22T04:14:50;100696.03;;;25.56;51.86
56402;BME280;42299;35.160;26.100;2022-07-22T04:16:12;100695.47;;;25.68;51.81
56402;BME280;42299;35.160;26.100;2022-07-22T04:17:44;100695.75;;;25.80;51.51
56402;BME280;42299;35.160;26.100;2022-07-22T04:19:06;100694.19;;;25.94;51.64
56402;BME280;42299;35.160;26.100;2022-07-22T04:20:54;100691.63;;;26.09;51.20
56402;BME280;42299;35.160;26.100;2022-07-22T04:22:25;100699.31;;;26.18;50.93
56402;BME280;42299;35.160;26.100;2022-07-22T04:23:48;100699.81;;;26.27;50.88
56402;BME280;42299;35.160;26.100;2022-07-22T04:25:20;100691.78;;;26.42;50.63
56402;BME280;42299;35.160;26.100;2022-07-22T04:26:42;100702.88;;;26.55;50.22
56402;BME280;42299;35.160;26.100;2022-07-22T04:28:05;100695.88;;;26.68;49.97
56402;BME280;42299;35.160;26.100;2022-07-22T04:29:27;100695.94;;;26.84;49.54
56402;BME280;42299;35.160;26.100;2022-07-22T04:30:50;100700.56;;;26.99;49.39
56402;BME280;42299;35.160;26.100;2022-07-22T04:32:12;100703.34;;;27.15;49.03
56402;BME280;42299;35.160;26.100;2022-07-22T04:33:34;100707.94;;;27.30;48.78
56402;BME280;42299;35.160;26.100;2022-07-22T04:34:56;100700.78;;;27.45;48.57
56402;BME280;42299;35.160;26.100;2022-07-22T04:36:19;100703.41;;;27.63;48.11
56402;BME280;42299;35.160;26.100;2022-07-22T04:37:42;100707.69;;;27.83;47.85
56402;BME280;42299;35.160;26.100;2022-07-22T04:39:05;100709.44;;;28.00;47.48
56402;BME280;42299;35.160;26.100;2022-07-22T04:40:31;100707.44;;;28.19;47.04
56402;BME280;42299;35.160;26.100;2022-07-22T04:41:53;100701.13;;;28.34;46.74
56402;BME280;42299;35.160;26.100;2022-07-22T04:43:17;100700.03;;;28.52;46.58
56402;BME280;42299;35.160;26.100;2022-07-22T04:44:40;100706.28;;;28.69;46.25
56402;BME280;42299;35.160;26.100;2022-07-22T04:46:02;100711.53;;;28.87;45.89
56402;BME280;42299;35.160;26.100;2022-07-22T04:47:27;100714.97;;;29.05;45.60
56402;BME280;42299;35.160;26.100;2022-07-22T04:48:50;100714.78;;;29.22;45.35
56402;BME280;42299;35.160;26.100;2022-07-22T04:50:11;100714.63;;;29.40;45.07
56402;BME280;42299;35.160;26.100;2022-07-22T04:51:34;100716.97;;;29.60;44.69
56402;BME280;42299;35.160;26.100;2022-07-22T04:52:59;100718.41;;;29.80;44.37
56402;BME280;42299;35.160;26.100;2022-07-22T04:54:22;100722.66;;;29.98;44.13
56402;BME280;42299;35.160;26.100;2022-07-22T04:55:49;100718.63;;;30.18;43.52
56402;BME280;42299;35.160;26.100;2022-07-22T04:57:12;100721.09;;;30.35;42.92
56402;BME280;42299;35.160;26.100;2022-07-22T04:58:33;100720.09;;;30.50;42.42
56402;BME280;42299;35.160;26.100;2022-07-22T04:59:55;100719.06;;;30.65;42.21
56402;BME280;42299;35.160;26.100;2022-07-22T05:01:19;100723.25;;;30.83;41.53
56402;BME280;42299;35.160;26.100;2022-07-22T05:02:44;100721.66;;;31.06;41.53
56402;BME280;42299;35.160;26.100;2022-07-22T05:04:07;100713.91;;;31.25;40.99
56402;BME280;42299;35.160;26.100;2022-07-22T05:05:28;100718.81;;;31.46;40.50
56402;BME280;42299;35.160;26.100;2022-07-22T05:06:51;100717.63;;;31.62;40.19
56402;BME280;42299;35.160;26.100;2022-07-22T05:08:13;100723.09;;;31.75;39.94
56402;BME280;42299;35.160;26.100;2022-07-22T05:09:35;100720.63;;;31.96;39.35
56402;BME280;42299;35.160;26.100;2022-07-22T05:10:59;100725.28;;;32.19;38.93
56402;BME280;42299;35.160;26.100;2022-07-22T05:12:21;100720.81;;;32.42;38.61
56402;BME280;42299;35.160;26.100;2022-07-22T05:13:44;100724.63;;;32.63;38.25
56402;BME280;42299;35.160;26.100;2022-07-22T05:15:06;100728.72;;;32.81;37.93
56402;BME280;42299;35.160;26.100;2022-07-22T05:16:28;100727.78;;;33.05;37.67
56402;BME280;42299;35.160;26.100;2022-07-22T05:17:51;100729.72;;;33.27;37.22
56402;BME280;42299;35.160;26.100;2022-07-22T05:19:21;100735.59;;;33.44;36.71
56402;BME280;42299;35.160;26.100;2022-07-22T05:20:45;100735.84;;;33.63;36.01
56402;BME280;42299;35.160;26.100;2022-07-22T05:22:08;100735.88;;;33.75;35.15
56402;BME280;42299;35.160;26.100;2022-07-22T05:23:30;100742.34;;;33.85;34.60
56402;BME280;42299;35.160;26.100;2022-07-22T05:24:53;100738.22;;;34.01;34.51
56402;BME280;42299;35.160;26.100;2022-07-22T05:26:17;100743.69;;;34.24;34.28
56402;BME280;42299;35.160;26.100;2022-07-22T05:27:49;100739.41;;;34.42;33.94
56402;BME280;42299;35.160;26.100;2022-07-22T05:29:15;100739.22;;;34.55;33.91
56402;BME280;42299;35.160;26.100;2022-07-22T05:30:40;100740.31;;;34.63;33.61
56402;BME280;42299;35.160;26.100;2022-07-22T05:32:02;100733.06;;;34.73;33.70
56402;BME280;42299;35.160;26.100;2022-07-22T05:33:25;100740.38;;;34.84;33.46
56402;BME280;42299;35.160;26.100;2022-07-22T05:34:50;100739.91;;;35.00;33.38
56402;BME280;42299;35.160;26.100;2022-07-22T05:36:13;100753.31;;;35.14;33.33
56402;BME280;42299;35.160;26.100;2022-07-22T05:37:40;100745.91;;;35.26;33.19
56402;BME280;42299;35.160;26.100;2022-07-22T05:39:02;100749.13;;;35.31;33.03
56402;BME280;42299;35.160;26.100;2022-07-22T05:40:25;100740.47;;;35.35;33.13
56402;BME280;42299;35.160;26.100;2022-07-22T05:41:50;100745.44;;;35.41;32.72
56402;BME280;42299;35.160;26.100;2022-07-22T05:43:13;100756.16;;;35.44;32.64
56402;BME280;42299;35.160;26.100;2022-07-22T05:44:35;100746.50;;;35.50;32.88
56402;BME280;42299;35.160;26.100;2022-07-22T05:45:58;100748.41;;;35.59;32.85
56402;BME280;42299;35.160;26.100;2022-07-22T05:47:20;100746.97;;;35.65;32.78
56402;BME280;42299;35.160;26.100;2022-07-22T05:48:42;100751.63;;;35.64;32.76
56402;BME280;42299;35.160;26.100;2022-07-22T05:50:06;100752.91;;;35.60;32.61
56402;BME280;42299;35.160;26.100;2022-07-22T05:51:30;100755.22;;;35.65;32.63
56402;BME280;42299;35.160;26.100;2022-07-22T05:52:52;100760.94;;;35.73;32.56
56402;BME280;42299;35.160;26.100;2022-07-22T05:54:16;100761.72;;;35.84;32.58
56402;BME280;42299;35.160;26.100;2022-07-22T05:55:38;100760.06;;;36.03;32.10
56402;BME280;42299;35.160;26.100;2022-07-22T05:57:01;100757.31;;;36.03;31.70
56402;BME280;42299;35.160;26.100;2022-07-22T05:58:24;100752.00;;;35.80;32.16
56402;BME280;42299;35.160;26.100;2022-07-22T05:59:45;100756.75;;;35.78;32.25
56402;BME280;42299;35.160;26.100;2022-07-22T06:01:09;100760.31;;;35.90;32.29
56402;BME280;42299;35.160;26.100;2022-07-22T06:02:32;100755.69;;;35.90;32.02
56402;BME280;42299;35.160;26.100;2022-07-22T06:03:55;100745.44;;;36.02;31.85
56402;BME280;42299;35.160;26.100;2022-07-22T06:05:18;100757.66;;;36.19;31.55
56402;BME280;42299;35.160;26.100;2022-07-22T06:06:41;100755.22;;;36.25;31.46
56402;BME280;42299;35.160;26.100;2022-07-22T06:08:04;100755.09;;;36.37;31.33
56402;BME280;42299;35.160;26.100;2022-07-22T06:09:36;100753.66;;;36.52;31.23
56402;BME280;42299;35.160;26.100;2022-07-22T06:10:59;100757.78;;;36.67;30.87
56402;BME280;42299;35.160;26.100;2022-07-22T06:12:21;100754.00;;;36.78;30.72
56402;BME280;42299;35.160;26.100;2022-07-22T06:13:44;100751.66;;;36.63;30.89
56402;BME280;42299;35.160;26.100;2022-07-22T06:15:07;100760.47;;;36.57;30.96
56402;BME280;42299;35.160;26.100;2022-07-22T06:16:31;100761.94;;;36.61;30.95
56402;BME280;42299;35.160;26.100;2022-07-22T06:17:56;100751.84;;;36.71;30.66
56402;BME280;42299;35.160;26.100;2022-07-22T06:19:18;100755.31;;;36.83;30.39
56402;BME280;42299;35.160;26.100;2022-07-22T06:20:41;100757.63;;;36.97;30.10
56402;BME280;42299;35.160;26.100;2022-07-22T06:22:04;100753.13;;;37.06;30.03
56402;BME280;42299;35.160;26.100;2022-07-22T06:23:26;100758.03;;;37.02;29.90
56402;BME280;42299;35.160;26.100;2022-07-22T06:24:49;100751.41;;;36.86;30.16
56402;BME280;42299;35.160;26.100;2022-07-22T06:26:12;100757.19;;;36.73;29.92
56402;BME280;42299;35.160;26.100;2022-07-22T06:27:36;100759.91;;;36.63;30.05
56402;BME280;42299;35.160;26.100;2022-07-22T06:29:00;100755.03;;;36.67;30.01
56402;BME280;42299;35.160;26.100;2022-07-22T06:30:24;100758.03;;;36.64;29.72
56402;BME280;42299;35.160;26.100;2022-07-22T06:31:47;100768.78;;;36.67;29.63
56402;BME280;42299;35.160;26.100;2022-07-22T06:33:09;100751.41;;;36.66;29.49
56402;BME280;42299;35.160;26.100;2022-07-22T06:34:32;100755.56;;;36.61;29.58
56402;BME280;42299;35.160;26.100;2022-07-22T06:35:59;100761.09;;;36.61;29.59
56402;BME280;42299;35.160;26.100;2022-07-22T06:37:23;100754.03;;;36.68;29.67
56402;BME280;42299;35.160;26.100;2022-07-22T06:38:45;100755.88;;;36.77;29.72
56402;BME280;42299;35.160;26.100;2022-07-22T06:40:09;100749.81;;;36.83;29.55
56402;BME280;42299;35.160;26.100;2022-07-22T06:41:54;100760.06;;;36.62;29.41
56402;BME280;42299;35.160;26.100;2022-07-22T06:43:37;100762.06;;;36.50;29.30
56402;BME280;42299;35.160;26.100;2022-07-22T06:45:19;100766.81;;;36.39;29.57
56402;BME280;42299;35.160;26.100;2022-07-22T06:47:14;100760.88;;;36.33;29.62
56402;BME280;42299;35.160;26.100;2022-07-22T06:48:36;100764.50;;;36.44;29.47
56402;BME280;42299;35.160;26.100;2022-07-22T06:49:59;100756.88;;;36.47;29.63
56402;BME280;42299;35.160;26.100;2022-07-22T06:51:21;100757.44;;;36.41;29.53
56402;BME280;42299;35.160;26.100;2022-07-22T06:52:44;100759.59;;;36.38;29.67
56402;BME280;42299;35.160;26.100;2022-07-22T06:54:06;100757.13;;;36.34;29.81
56402;BME280;42299;35.160;26.100;2022-07-22T06:55:28;100755.97;;;36.27;29.71
56402;BME280;42299;35.160;26.100;2022-07-22T06:56:58;100760.28;;;36.20;29.97
56402;BME280;42299;35.160;26.100;2022-07-22T06:58:25;100755.91;;;36.18;30.03
56402;BME280;42299;35.160;26.100;2022-07-22T06:59:49;100756.84;;;36.28;30.06
56402;BME280;42299;35.160;26.100;2022-07-22T07:01:12;100759.16;;;36.32;30.24
56402;BME280;42299;35.160;26.100;2022-07-22T07:02:57;100755.06;;;36.17;30.03
56402;BME280;42299;35.160;26.100;2022-07-22T07:04:20;100755.44;;;36.03;30.14
56402;BME280;42299;35.160;26.100;2022-07-22T07:05:44;100752.47;;;35.85;30.53
56402;BME280;42299;35.160;26.100;2022-07-22T07:07:07;100752.31;;;35.77;30.67
56402;BME280;42299;35.160;26.100;2022-07-22T07:08:34;100753.69;;;35.72;30.90
56402;BME280;42299;35.160;26.100;2022-07-22T07:09:56;100747.81;;;35.76;31.00
56402;BME280;42299;35.160;26.100;2022-07-22T07:11:35;100741.16;;;35.79;31.01
56402;BME280;42299;35.160;26.100;2022-07-22T07:13:05;100747.66;;;35.78;30.92